Grandview, Tennessee
Current Conditions -  °F | °C
As of 10:53 AM on Friday 24 Oct 2014 (Local Time) from KCSV Reporting Station
Clear Clear  
Wind Chill: 56°   Ceiling: Unl
Heat Index: 56°   Visibility: 10mi
Dew Point: 41°   Wind: 0mph
Humidity: 57%   Direction: NA
Pressure: 30.13"   Gusts: NA
Location:  35.74°N, 84.84°W
Report Text: KCSV 241453Z AUTO 00000KT 10SM CLR 13/05 A3013 RMK AO2 SLP198 T01330050 53005
Loading
Personal Weather Stations






























Interactive Weather Map New forecast layout! Learn more

10-Day Weather Forecast

Advertisements
Track Severe Weather on mobile